Time;durP1;ratioP1;P1;durP2;ratioP2;P2;SDS_P1;SDS_P2;PMS_P1;PMS_P2;Temp;Humidity;BMP_temperature;BMP_pressure;BME280_temperature;BME280_humidity;BME280_pressure;Samples;Min_cycle;Max_cycle;Signal;HPM_P1;HPM_P2
2023/05/08 00:01:25;;;;;;;8.65;7.75;;;15.70;99.90;;;;;;5014632;28;20920;-81
2023/05/08 00:03:51;;;;;;;8.10;6.75;;;15.70;99.90;;;;;;5013958;28;20037;-82
2023/05/08 00:06:17;;;;;;;7.78;6.80;;;15.70;99.90;;;;;;5013362;28;20052;-81
2023/05/08 00:08:42;;;;;;;10.32;7.97;;;15.70;99.90;;;;;;5015240;28;20029;-82
2023/05/08 00:11:08;;;;;;;8.38;7.30;;;15.70;99.90;;;;;;5012786;28;20049;-82
2023/05/08 00:13:33;;;;;;;11.40;9.07;;;15.70;99.90;;;;;;5015320;28;20084;-82
2023/05/08 00:15:59;;;;;;;10.90;9.02;;;15.60;99.90;;;;;;5030433;28;20029;-82
2023/05/08 00:18:25;;;;;;;11.90;9.30;;;15.60;99.90;;;;;;5015046;28;20432;-81
2023/05/08 00:20:51;;;;;;;11.10;8.52;;;15.60;99.90;;;;;;5013791;28;20029;-82
2023/05/08 00:23:16;;;;;;;12.07;10.18;;;15.50;99.90;;;;;;5012996;28;20396;-81
2023/05/08 00:25:42;;;;;;;12.30;10.98;;;15.50;99.90;;;;;;5014856;28;20029;-81
2023/05/08 00:28:07;;;;;;;12.23;10.20;;;15.40;99.90;;;;;;5013416;28;20029;-82
2023/05/08 00:30:33;;;;;;;10.90;9.65;;;15.40;99.90;;;;;;5013117;28;20132;-81
2023/05/08 00:32:58;;;;;;;13.43;11.10;;;15.40;99.90;;;;;;5013261;28;20049;-82
2023/05/08 00:35:24;;;;;;;12.45;10.00;;;15.30;99.90;;;;;;5012671;28;20065;-81
2023/05/08 00:37:50;;;;;;;11.60;9.95;;;15.30;99.90;;;;;;5013884;28;20442;-81
2023/05/08 00:40:15;;;;;;;12.00;10.40;;;15.30;99.90;;;;;;5013522;28;20088;-82
2023/05/08 00:42:41;;;;;;;13.00;10.65;;;15.20;99.90;;;;;;5013183;28;20030;-81
2023/05/08 00:45:07;;;;;;;12.10;10.15;;;15.20;99.90;;;;;;5014845;28;20091;-81
2023/05/08 00:47:33;;;;;;;11.48;10.10;;;15.10;99.90;;;;;;5014640;28;20030;-81
2023/05/08 00:50:00;;;;;;;11.50;9.95;;;15.10;99.90;;;;;;5012274;28;20022;-81
2023/05/08 00:52:28;;;;;;;11.63;10.15;;;15.00;99.90;;;;;;5012795;28;20391;-82
2023/05/08 00:54:54;;;;;;;11.45;9.70;;;15.00;99.90;;;;;;5013711;28;20034;-81
2023/05/08 00:57:21;;;;;;;11.65;10.30;;;14.90;99.90;;;;;;5013459;28;20025;-81
2023/05/08 00:59:48;;;;;;;12.10;9.90;;;14.90;99.90;;;;;;5015015;28;20033;-81
2023/05/08 01:02:15;;;;;;;12.55;10.75;;;14.90;99.90;;;;;;5015969;28;20026;-81
2023/05/08 01:04:43;;;;;;;12.82;10.20;;;14.90;99.90;;;;;;5012978;28;20021;-81
2023/05/08 01:07:09;;;;;;;12.32;10.73;;;14.90;99.90;;;;;;5014087;28;20550;-81
2023/05/08 01:09:35;;;;;;;12.30;10.75;;;14.80;99.90;;;;;;5013511;28;20029;-81
2023/05/08 01:12:09;;;;;;;12.90;11.05;;;14.80;99.90;;;;;;5014534;28;21301;-81
2023/05/08 01:15:08;;;;;;;12.95;10.77;;;14.90;99.90;;;;;;5014525;28;20069;-81
2023/05/08 01:17:53;;;;;;;14.57;11.55;;;14.80;99.90;;;;;;5013239;28;20026;-81
2023/05/08 01:20:19;;;;;;;12.07;10.70;;;14.80;99.90;;;;;;5012430;28;22399;-81
2023/05/08 01:23:27;;;;;;;12.32;10.75;;;14.80;99.90;;;;;;5012091;28;20029;-81
2023/05/08 01:26:14;;;;;;;11.85;10.30;;;14.80;99.90;;;;;;5012359;28;20037;-81
2023/05/08 01:28:46;;;;;;;11.63;10.43;;;14.80;99.90;;;;;;5013137;28;20112;-81
2023/05/08 01:31:24;;;;;;;13.35;11.05;;;14.80;99.90;;;;;;5014658;28;20079;-80
2023/05/08 01:34:01;;;;;;;12.30;10.82;;;14.80;99.90;;;;;;5013051;28;20038;-81
2023/05/08 01:36:40;;;;;;;11.57;10.38;;;14.70;99.90;;;;;;5012194;28;20025;-81
2023/05/08 01:39:05;;;;;;;12.80;11.30;;;14.70;99.90;;;;;;5016031;28;20079;-81
2023/05/08 01:41:34;;;;;;;13.18;10.73;;;14.70;99.90;;;;;;5015541;28;20554;-81
2023/05/08 01:44:20;;;;;;;12.88;10.55;;;14.60;99.90;;;;;;5016889;28;20163;-80
2023/05/08 01:46:49;;;;;;;13.32;11.23;;;14.60;99.90;;;;;;5018390;28;20094;-81
2023/05/08 01:49:28;;;;;;;11.43;9.88;;;14.60;99.90;;;;;;5015919;28;20029;-82
2023/05/08 01:52:04;;;;;;;11.90;10.45;;;14.50;99.90;;;;;;5015808;28;20669;-81
2023/05/08 01:54:39;;;;;;;13.00;10.48;;;14.50;99.90;;;;;;5015903;28;20065;-81
2023/05/08 01:57:08;;;;;;;12.50;9.93;;;14.40;99.90;;;;;;5017606;28;20030;-81
2023/05/08 01:59:35;;;;;;;12.40;10.65;;;14.40;99.90;;;;;;5017824;28;20033;-81
2023/05/08 02:02:02;;;;;;;12.90;10.77;;;14.40;99.90;;;;;;5018237;28;20022;-80
2023/05/08 02:04:29;;;;;;;12.05;10.45;;;14.30;99.90;;;;;;5016237;28;20056;-81
2023/05/08 02:06:56;;;;;;;11.30;10.07;;;14.30;99.90;;;;;;5015546;28;20078;-81
2023/05/08 02:09:25;;;;;;;13.05;10.48;;;14.20;99.90;;;;;;5016114;28;20014;-81
2023/05/08 02:11:54;;;;;;;12.00;10.68;;;14.20;99.90;;;;;;5016488;28;20053;-81
2023/05/08 02:14:21;;;;;;;12.55;10.93;;;14.10;99.90;;;;;;5015791;28;20122;-80
2023/05/08 02:16:49;;;;;;;12.18;10.50;;;14.10;99.90;;;;;;5017709;28;20583;-81
2023/05/08 02:19:15;;;;;;;12.85;11.45;;;14.10;99.90;;;;;;5015750;28;20026;-82
2023/05/08 02:21:43;;;;;;;12.48;10.77;;;14.10;99.90;;;;;;5016010;28;20056;-80
2023/05/08 02:24:09;;;;;;;12.80;11.45;;;14.00;99.90;;;;;;5016987;28;20029;-81
2023/05/08 02:26:37;;;;;;;12.90;11.38;;;14.00;99.90;;;;;;5016597;28;20108;-80
2023/05/08 02:29:02;;;;;;;14.40;12.00;;;14.00;99.90;;;;;;5016743;28;20537;-81
2023/05/08 02:31:29;;;;;;;13.93;12.20;;;14.00;99.90;;;;;;5016721;28;20090;-81
2023/05/08 02:33:56;;;;;;;13.80;12.30;;;14.00;99.90;;;;;;5016728;28;20049;-81
2023/05/08 02:36:23;;;;;;;14.00;10.60;;;13.90;99.90;;;;;;5014388;28;20017;-80
2023/05/08 02:38:53;;;;;;;12.60;11.30;;;14.00;99.90;;;;;;5015863;28;20144;-81
2023/05/08 02:41:21;;;;;;;13.57;11.23;;;13.90;99.90;;;;;;5014971;28;20550;-81
2023/05/08 02:43:48;;;;;;;12.07;10.77;;;13.90;99.90;;;;;;5016425;28;20041;-81
2023/05/08 02:46:28;;;;;;;14.10;11.82;;;13.90;99.90;;;;;;5016568;28;20506;-81
2023/05/08 02:49:11;;;;;;;12.27;10.98;;;13.90;99.90;;;;;;5017541;28;20025;-79
2023/05/08 02:51:54;;;;;;;12.95;11.38;;;13.80;99.90;;;;;;5014959;28;20076;-80
2023/05/08 02:54:27;;;;;;;14.38;12.15;;;13.80;99.90;;;;;;5015628;28;20092;-80
2023/05/08 02:57:28;;;;;;;14.48;11.90;;;13.70;99.90;;;;;;5015595;28;20410;-79
2023/05/08 02:59:59;;;;;;;13.50;11.52;;;13.70;99.90;;;;;;5015537;28;20069;-79
2023/05/08 03:02:37;;;;;;;13.52;11.43;;;13.70;99.90;;;;;;5016536;28;20026;-79
2023/05/08 03:05:17;;;;;;;13.48;11.85;;;13.70;99.90;;;;;;5015724;28;20053;-80
2023/05/08 03:07:46;;;;;;;14.55;12.25;;;13.70;99.90;;;;;;5015160;28;20953;-80
2023/05/08 03:10:14;;;;;;;13.35;11.85;;;13.70;99.90;;;;;;5015100;28;20519;-80
2023/05/08 03:12:44;;;;;;;13.50;11.93;;;13.70;99.90;;;;;;5013662;28;20407;-81
2023/05/08 03:15:22;;;;;;;14.35;11.73;;;13.70;99.90;;;;;;5016487;28;20391;-80
2023/05/08 03:17:53;;;;;;;13.70;12.05;;;13.70;99.90;;;;;;5017168;28;20047;-81
2023/05/08 03:20:21;;;;;;;13.80;11.35;;;13.70;99.90;;;;;;5014284;28;20037;-81
2023/05/08 03:22:48;;;;;;;15.30;11.73;;;13.70;99.90;;;;;;5015334;28;20593;-81
2023/05/08 03:25:16;;;;;;;13.35;11.93;;;13.60;99.90;;;;;;5015867;28;20036;-80
2023/05/08 03:27:43;;;;;;;14.15;12.07;;;13.70;99.90;;;;;;5012735;28;20060;-80
2023/05/08 03:30:11;;;;;;;15.20;11.95;;;13.60;99.90;;;;;;5016401;28;20033;-81
2023/05/08 03:32:39;;;;;;;15.00;12.07;;;13.70;99.90;;;;;;5030234;28;20437;-80
2023/05/08 03:35:05;;;;;;;13.55;12.00;;;13.60;99.90;;;;;;5014323;28;20041;-80
2023/05/08 03:37:31;;;;;;;15.52;11.77;;;13.70;99.90;;;;;;5014842;28;20028;-81
2023/05/08 03:39:57;;;;;;;14.35;11.93;;;13.60;99.90;;;;;;5015319;28;20030;-81
2023/05/08 03:42:24;;;;;;;13.90;12.07;;;13.60;99.90;;;;;;5014334;28;20056;-81
2023/05/08 03:44:50;;;;;;;14.35;12.52;;;13.60;99.90;;;;;;5015842;28;20487;-80
2023/05/08 03:47:20;;;;;;;13.63;11.93;;;13.60;99.90;;;;;;5016036;28;20435;-81
2023/05/08 03:49:47;;;;;;;12.93;11.32;;;13.70;99.90;;;;;;5014742;28;20036;-81
2023/05/08 03:52:13;;;;;;;12.23;10.98;;;13.70;99.90;;;;;;5014126;28;20040;-80
2023/05/08 03:54:39;;;;;;;14.43;12.43;;;13.60;99.90;;;;;;5014399;28;20037;-80
2023/05/08 03:57:05;;;;;;;14.40;11.93;;;13.60;99.90;;;;;;5014895;28;20036;-81
2023/05/08 03:59:40;;;;;;;15.07;12.93;;;13.70;99.90;;;;;;5014490;28;20026;-81
2023/05/08 04:02:28;;;;;;;12.00;10.75;;;13.70;99.90;;;;;;5014596;28;20104;-81
2023/05/08 04:05:21;;;;;;;13.40;11.45;;;13.60;99.90;;;;;;5015115;28;20029;-81
2023/05/08 04:08:02;;;;;;;13.05;10.55;;;13.70;99.90;;;;;;5014257;28;20052;-81
2023/05/08 04:10:38;;;;;;;14.45;11.55;;;13.60;99.90;;;;;;5013519;28;20099;-81
2023/05/08 04:13:18;;;;;;;14.82;11.77;;;13.60;99.90;;;;;;5012806;28;20041;-80
2023/05/08 04:15:53;;;;;;;13.18;11.32;;;13.60;99.90;;;;;;5015095;28;20068;-81
2023/05/08 04:18:26;;;;;;;14.73;11.60;;;13.50;99.90;;;;;;5015764;28;20026;-80
2023/05/08 04:20:53;;;;;;;;;;;13.50;99.90;;;;;;5015051;28;20021;-81
2023/05/08 04:23:21;;;;;;;13.15;10.45;;;13.40;99.90;;;;;;5013045;28;20930;-81
2023/05/08 04:25:48;;;;;;;12.52;10.75;;;13.40;99.90;;;;;;5011904;28;20044;-80
2023/05/08 04:28:14;;;;;;;14.20;11.75;;;13.40;99.90;;;;;;5013970;28;20026;-79
2023/05/08 04:30:40;;;;;;;14.88;12.40;;;13.50;99.90;;;;;;5013733;28;20083;-81
2023/05/08 04:33:07;;;;;;;14.70;11.20;;;13.40;99.90;;;;;;5015400;28;20038;-80
2023/05/08 04:35:33;;;;;;;12.40;11.02;;;13.40;99.90;;;;;;5014279;28;20131;-80
2023/05/08 04:37:59;;;;;;;14.10;11.85;;;13.40;99.90;;;;;;5013627;28;20040;-80
2023/05/08 04:40:25;;;;;;;14.63;12.75;;;13.50;99.90;;;;;;5013389;28;20033;-80
2023/05/08 04:42:50;;;;;;;12.90;11.50;;;13.50;99.90;;;;;;5014412;28;20030;-80
2023/05/08 04:45:16;;;;;;;13.52;11.70;;;13.40;99.90;;;;;;5013863;28;20125;-80
2023/05/08 04:47:42;;;;;;;14.52;12.10;;;13.40;99.90;;;;;;5014715;28;20030;-81
2023/05/08 04:50:08;;;;;;;14.20;12.43;;;13.40;99.90;;;;;;5016178;28;20033;-81
2023/05/08 04:52:34;;;;;;;14.52;12.05;;;13.40;99.90;;;;;;5013378;28;20030;-80
2023/05/08 04:54:59;;;;;;;13.35;11.88;;;13.40;99.90;;;;;;5011897;28;20092;-80
2023/05/08 04:57:25;;;;;;;14.65;12.73;;;13.40;99.90;;;;;;5013713;28;20029;-81
2023/05/08 04:59:50;;;;;;;15.55;13.43;;;13.50;99.90;;;;;;5014225;28;20033;-81
2023/05/08 05:02:16;;;;;;;14.45;12.77;;;13.50;99.90;;;;;;5014446;28;20026;-81
2023/05/08 05:04:41;;;;;;;15.00;12.85;;;13.50;99.90;;;;;;5015628;28;20495;-80
2023/05/08 05:07:07;;;;;;;14.30;12.73;;;13.50;99.90;;;;;;5011891;28;20049;-81
2023/05/08 05:09:35;;;;;;;15.27;12.43;;;13.50;99.90;;;;;;5012296;28;20156;-80
2023/05/08 05:12:09;;;;;;;14.02;12.38;;;13.60;99.90;;;;;;5018572;28;20119;-80
2023/05/08 05:14:35;;;;;;;14.18;12.68;;;13.60;99.90;;;;;;5015526;28;20075;-81
2023/05/08 05:17:00;;;;;;;13.73;12.10;;;13.60;99.90;;;;;;5016400;28;20108;-80
2023/05/08 05:19:26;;;;;;;13.93;12.25;;;13.70;99.90;;;;;;5017302;28;20109;-81
2023/05/08 05:21:51;;;;;;;14.82;13.18;;;13.70;99.90;;;;;;5015907;28;20128;-81
2023/05/08 05:24:17;;;;;;;13.38;11.98;;;13.70;99.90;;;;;;5015124;28;20034;-81
2023/05/08 05:26:43;;;;;;;13.38;11.93;;;13.60;99.90;;;;;;5016322;28;20041;-80
2023/05/08 05:29:08;;;;;;;14.35;12.85;;;13.70;99.90;;;;;;5016344;28;20030;-80
2023/05/08 05:31:34;;;;;;;14.23;12.45;;;13.70;99.90;;;;;;5015380;28;20464;-81
2023/05/08 05:33:59;;;;;;;13.88;12.25;;;13.80;99.90;;;;;;5016935;28;20044;-81
2023/05/08 05:36:25;;;;;;;15.02;13.20;;;13.80;99.90;;;;;;5015709;28;20589;-80
2023/05/08 05:38:51;;;;;;;14.60;12.95;;;13.90;99.90;;;;;;5014959;28;20549;-81
2023/05/08 05:41:16;;;;;;;17.55;14.52;;;13.90;99.90;;;;;;5014452;28;20029;-81
2023/05/08 05:43:42;;;;;;;14.98;13.38;;;13.90;99.90;;;;;;5016441;28;22402;-81
2023/05/08 05:46:08;;;;;;;15.20;13.60;;;13.90;99.90;;;;;;5015376;28;20690;-81
2023/05/08 05:48:35;;;;;;;14.68;13.10;;;13.90;99.90;;;;;;5015640;28;20972;-81
2023/05/08 05:51:01;;;;;;;15.15;13.30;;;14.00;99.90;;;;;;5016957;28;20113;-81
2023/05/08 05:53:26;;;;;;;15.30;13.30;;;14.00;99.90;;;;;;5029579;28;20041;-81
2023/05/08 05:55:52;;;;;;;15.50;13.90;;;14.00;99.90;;;;;;5014579;28;20494;-82
2023/05/08 05:58:18;;;;;;;14.95;13.38;;;14.10;99.90;;;;;;5014718;28;20081;-81
2023/05/08 06:00:43;;;;;;;16.48;14.85;;;14.20;99.90;;;;;;5015034;28;20408;-81
2023/05/08 06:03:12;;;;;;;16.83;14.25;;;14.20;99.90;;;;;;5016342;28;20041;-81
2023/05/08 06:05:39;;;;;;;16.58;14.50;;;14.30;99.90;;;;;;5019389;28;20379;-81
2023/05/08 06:08:05;;;;;;;17.67;14.55;;;14.30;99.90;;;;;;5014883;28;20033;-81
2023/05/08 06:10:30;;;;;;;15.35;13.68;;;14.40;99.90;;;;;;5013983;28;20057;-81
2023/05/08 06:12:56;;;;;;;15.82;14.00;;;14.40;99.90;;;;;;5015287;28;20074;-81
2023/05/08 06:15:23;;;;;;;18.98;14.82;;;14.40;99.90;;;;;;5015124;28;22052;-80
2023/05/08 06:17:48;;;;;;;19.02;16.25;;;14.50;99.90;;;;;;5014384;28;20459;-80
2023/05/08 06:20:14;;;;;;;16.45;14.75;;;14.50;99.90;;;;;;5014482;28;20034;-81
2023/05/08 06:22:40;;;;;;;19.05;16.05;;;14.60;99.90;;;;;;5011818;28;20022;-81
2023/05/08 06:25:07;;;;;;;20.38;17.38;;;14.60;99.90;;;;;;5011394;28;22373;-81
2023/05/08 06:27:33;;;;;;;25.00;19.98;;;14.70;99.90;;;;;;5012538;28;20048;-80
2023/05/08 06:29:59;;;;;;;28.98;24.17;;;14.80;99.90;;;;;;5012433;28;20167;-81
2023/05/08 06:32:25;;;;;;;26.35;21.00;;;14.80;99.90;;;;;;5012925;28;20484;-81
2023/05/08 06:34:50;;;;;;;23.92;18.52;;;14.90;99.90;;;;;;5013232;28;20080;-80
2023/05/08 06:37:16;;;;;;;23.10;18.60;;;15.00;99.90;;;;;;5011641;28;20849;-80
2023/05/08 06:39:42;;;;;;;24.13;18.52;;;15.10;99.90;;;;;;5011550;28;20056;-81
2023/05/08 06:42:08;;;;;;;27.02;19.60;;;15.10;99.90;;;;;;5004102;28;20026;-80
2023/05/08 06:44:33;;;;;;;22.98;17.70;;;15.10;99.90;;;;;;5011377;28;20029;-80
2023/05/08 06:46:59;;;;;;;27.70;19.50;;;15.20;99.90;;;;;;5012084;28;20585;-81
2023/05/08 06:49:24;;;;;;;27.17;18.45;;;15.30;99.90;;;;;;5012218;28;20033;-82
2023/05/08 06:51:50;;;;;;;29.17;20.50;;;15.30;99.90;;;;;;5013815;28;20730;-82
2023/05/08 06:54:16;;;;;;;30.02;20.33;;;15.40;99.90;;;;;;5010928;28;20128;-81
2023/05/08 06:56:41;;;;;;;27.42;19.10;;;15.40;99.90;;;;;;5012286;28;20104;-80
2023/05/08 06:59:07;;;;;;;28.75;20.15;;;15.40;99.90;;;;;;5011792;28;20041;-80
2023/05/08 07:01:32;;;;;;;27.20;19.70;;;15.50;99.90;;;;;;5014063;28;20036;-81
2023/05/08 07:03:59;;;;;;;27.58;20.63;;;15.60;99.90;;;;;;5015074;28;20037;-80
2023/05/08 07:06:24;;;;;;;25.40;19.15;;;15.60;99.90;;;;;;5015407;28;20025;-81
2023/05/08 07:08:50;;;;;;;28.17;19.65;;;15.70;99.90;;;;;;5013393;28;20079;-81
2023/05/08 07:11:16;;;;;;;25.58;19.35;;;15.90;99.90;;;;;;5012365;28;20046;-81
2023/05/08 07:13:42;;;;;;;26.23;18.38;;;16.00;99.90;;;;;;5014447;28;20047;-81
2023/05/08 07:16:09;;;;;;;23.05;17.23;;;16.30;99.90;;;;;;5012951;28;20145;-81
2023/05/08 07:18:35;;;;;;;23.65;17.27;;;16.60;99.90;;;;;;5014847;28;20034;-81
2023/05/08 07:21:01;;;;;;;23.88;17.02;;;16.80;99.90;;;;;;5014835;28;20037;-81
2023/05/08 07:23:26;;;;;;;25.55;18.83;;;17.00;99.90;;;;;;5011199;28;20030;-82
2023/05/08 07:25:53;;;;;;;26.63;20.40;;;17.20;99.90;;;;;;5012952;28;20052;-82
2023/05/08 07:28:19;;;;;;;28.90;21.58;;;17.20;99.90;;;;;;5013203;28;20056;-82
2023/05/08 07:30:44;;;;;;;30.33;21.33;;;17.30;99.90;;;;;;5011670;28;20030;-81
2023/05/08 07:33:10;;;;;;;27.33;19.30;;;17.20;99.90;;;;;;5013525;28;20048;-80
2023/05/08 07:35:39;;;;;;;24.55;18.70;;;17.30;99.90;;;;;;5014106;28;20026;-81
2023/05/08 07:38:05;;;;;;;24.58;17.50;;;17.40;99.90;;;;;;5013713;28;20040;-80
2023/05/08 07:40:31;;;;;;;27.75;18.05;;;17.40;99.90;;;;;;5012701;28;20033;-82
2023/05/08 07:42:57;;;;;;;23.05;16.75;;;17.50;99.90;;;;;;5013791;28;20044;-81
2023/05/08 07:45:23;;;;;;;25.25;20.13;;;17.60;99.90;;;;;;5012436;28;20091;-81
2023/05/08 07:47:51;;;;;;;26.45;20.40;;;17.70;99.90;;;;;;5014034;28;20037;-81
2023/05/08 07:50:16;;;;;;;26.20;18.65;;;17.70;99.90;;;;;;5013914;28;20022;-81
2023/05/08 07:52:42;;;;;;;24.90;17.77;;;17.70;99.90;;;;;;5014712;28;20025;-81
2023/05/08 07:55:08;;;;;;;21.90;17.35;;;17.90;99.90;;;;;;5011844;28;20029;-81
2023/05/08 07:57:38;;;;;;;21.60;17.15;;;17.90;99.90;;;;;;5012460;28;20505;-82
2023/05/08 08:00:08;;;;;;;24.17;18.15;;;18.00;99.90;;;;;;5012884;28;20029;-82
2023/05/08 08:02:34;;;;;;;24.70;18.50;;;18.00;99.90;;;;;;5013399;28;20022;-81
2023/05/08 08:05:00;;;;;;;24.85;18.45;;;17.90;99.90;;;;;;5013167;28;20026;-82
2023/05/08 08:07:26;;;;;;;23.10;17.90;;;17.80;99.90;;;;;;5014613;28;20041;-81
2023/05/08 08:09:51;;;;;;;24.65;19.08;;;17.70;99.90;;;;;;5011496;28;20046;-82
2023/05/08 08:12:17;;;;;;;26.15;20.67;;;17.70;99.90;;;;;;5012321;28;20080;-82
2023/05/08 08:14:43;;;;;;;23.75;19.65;;;17.80;99.90;;;;;;5012020;28;20099;-82
2023/05/08 08:17:08;;;;;;;23.08;18.15;;;17.80;99.90;;;;;;5013174;28;20040;-80
2023/05/08 08:19:34;;;;;;;18.48;15.68;;;17.80;99.90;;;;;;5012640;28;20942;-81
2023/05/08 08:21:59;;;;;;;22.80;18.30;;;17.90;99.90;;;;;;5013701;28;20031;-80
2023/05/08 08:24:25;;;;;;;24.35;19.70;;;17.90;99.90;;;;;;5011800;28;20055;-81
2023/05/08 08:26:50;;;;;;;24.77;21.45;;;17.90;99.90;;;;;;5012237;28;20041;-81
2023/05/08 08:29:16;;;;;;;25.55;20.77;;;17.90;99.90;;;;;;5012210;28;20079;-81
2023/05/08 08:31:42;;;;;;;21.98;18.10;;;17.90;99.90;;;;;;5012256;28;20029;-81
2023/05/08 08:34:07;;;;;;;22.08;18.38;;;18.00;99.90;;;;;;5013153;28;20041;-80
2023/05/08 08:36:33;;;;;;;27.75;23.95;;;18.20;99.90;;;;;;5013323;28;22327;-81
2023/05/08 08:38:59;;;;;;;28.52;24.75;;;18.30;99.90;;;;;;5012628;28;20026;-81
2023/05/08 08:41:26;;;;;;;25.80;22.48;;;18.40;99.90;;;;;;5009225;28;20026;-81
2023/05/08 08:43:53;;;;;;;28.13;24.90;;;18.50;99.90;;;;;;5012424;28;20030;-81
2023/05/08 08:46:22;;;;;;;27.08;23.23;;;18.60;99.90;;;;;;5010286;28;20017;-80
2023/05/08 08:48:48;;;;;;;23.42;20.70;;;18.50;99.90;;;;;;5011923;28;20101;-79
2023/05/08 08:51:30;;;;;;;23.08;20.10;;;18.70;99.90;;;;;;5013285;28;20018;-80
2023/05/08 08:54:11;;;;;;;22.40;18.35;;;19.10;99.90;;;;;;5012059;28;20041;-80
2023/05/08 08:56:41;;;;;;;27.38;22.35;;;19.40;99.90;;;;;;5011197;28;20581;-80
2023/05/08 08:59:07;;;;;;;27.52;21.98;;;19.40;99.90;;;;;;5012230;28;20109;-79
2023/05/08 09:01:37;;;;;;;22.50;19.58;;;19.40;99.90;;;;;;5011230;28;20073;-79
2023/05/08 09:04:04;;;;;;;23.83;18.00;;;19.60;99.90;;;;;;5010566;28;20048;-79
2023/05/08 09:06:30;;;;;;;20.77;17.17;;;19.70;99.90;;;;;;5011650;28;20032;-80
2023/05/08 09:08:59;;;;;;;20.48;16.95;;;19.80;99.90;;;;;;5012717;28;20042;-80
2023/05/08 09:11:25;;;;;;;22.20;19.08;;;19.90;99.90;;;;;;5011393;28;20061;-80
2023/05/08 09:13:50;;;;;;;19.65;17.02;;;20.00;99.90;;;;;;5011787;28;20054;-79
2023/05/08 09:16:16;;;;;;;18.98;15.63;;;20.00;99.90;;;;;;5011989;28;20535;-79
2023/05/08 09:18:42;;;;;;;21.35;18.13;;;20.20;99.90;;;;;;5012435;28;20079;-79
2023/05/08 09:21:08;;;;;;;21.77;18.45;;;20.30;99.90;;;;;;5012825;28;20029;-78
2023/05/08 09:23:53;;;;;;;21.85;17.58;;;20.50;99.90;;;;;;5013096;28;20029;-79
2023/05/08 09:26:27;;;;;;;21.20;17.17;;;20.70;99.90;;;;;;5011081;28;20053;-79
2023/05/08 09:29:21;;;;;;;21.58;19.27;;;20.90;99.90;;;;;;5013044;28;20028;-79
2023/05/08 09:31:51;;;;;;;20.73;17.05;;;20.90;99.90;;;;;;5011744;28;20465;-79
2023/05/08 09:34:26;;;;;;;19.35;14.80;;;21.40;99.90;;;;;;5012431;28;20037;-80
2023/05/08 09:36:53;;;;;;;17.65;13.85;;;22.40;99.90;;;;;;5013707;28;20026;-79
2023/05/08 09:39:24;;;;;;;16.17;13.18;;;23.20;99.90;;;;;;5010501;28;20109;-80
2023/05/08 09:42:16;;;;;;;16.65;14.40;;;23.60;99.90;;;;;;5011704;28;20040;-80
2023/05/08 09:44:48;;;;;;;17.92;14.25;;;24.00;99.90;;;;;;5009699;28;20045;-80
2023/05/08 09:47:22;;;;;;;15.95;12.30;;;24.40;99.90;;;;;;5011872;28;21504;-79
2023/05/08 09:50:02;;;;;;;15.32;11.85;;;25.20;99.90;;;;;;5012637;28;20048;-79
2023/05/08 09:52:29;;;;;;;10.07;8.70;;;25.20;99.90;;;;;;5012376;28;20537;-80
2023/05/08 09:54:58;;;;;;;17.25;14.50;;;24.70;99.90;;;;;;5011404;28;20077;-80
2023/05/08 09:57:24;;;;;;;13.75;12.27;;;24.00;99.90;;;;;;5009976;28;20029;-80
2023/05/08 09:59:50;;;;;;;15.98;13.40;;;23.30;99.90;;;;;;5012797;28;20029;-81
2023/05/08 10:02:16;;;;;;;15.73;13.70;;;23.00;99.90;;;;;;5014899;28;20056;-80
2023/05/08 10:04:41;;;;;;;14.50;12.90;;;22.80;99.90;;;;;;5016321;28;20748;-80
2023/05/08 10:07:07;;;;;;;18.10;13.13;;;22.90;99.90;;;;;;5014868;28;20022;-81
2023/05/08 10:09:33;;;;;;;15.98;14.25;;;23.10;99.90;;;;;;5012141;28;20029;-81
2023/05/08 10:11:58;;;;;;;17.25;15.43;;;22.80;99.90;;;;;;5013788;28;20042;-81
2023/05/08 10:14:24;;;;;;;19.52;17.02;;;22.40;99.90;;;;;;5015396;28;20172;-80
2023/05/08 10:16:52;;;;;;;19.42;16.45;;;22.00;99.90;;;;;;5014519;28;20026;-80
2023/05/08 10:19:27;;;;;;;17.50;15.60;;;21.60;99.90;;;;;;5015095;28;20025;-80
2023/05/08 10:21:55;;;;;;;17.45;15.65;;;21.40;99.90;;;;;;5016489;28;20041;-81
2023/05/08 10:24:26;;;;;;;16.20;14.50;;;21.20;99.90;;;;;;5013134;28;20022;-80
2023/05/08 10:26:56;;;;;;;16.92;15.07;;;20.90;99.90;;;;;;5014052;28;20025;-79
2023/05/08 10:29:46;;;;;;;18.52;16.63;;;20.70;99.90;;;;;;5015209;28;20022;-84
2023/05/08 10:32:14;;;;;;;18.67;16.67;;;20.50;99.90;;;;;;5010819;28;20601;-81
2023/05/08 10:34:41;;;;;;;16.75;15.05;;;20.30;99.90;;;;;;5010568;28;20595;-83
2023/05/08 10:37:10;;;;;;;18.10;16.30;;;20.20;99.90;;;;;;5011397;28;20029;-81
2023/05/08 10:39:37;;;;;;;17.67;15.93;;;20.10;99.90;;;;;;5025333;28;20036;-80
2023/05/08 10:42:03;;;;;;;19.80;17.80;;;20.00;99.90;;;;;;5012026;28;20036;-81
2023/05/08 10:44:30;;;;;;;19.15;17.25;;;19.90;99.90;;;;;;5016165;28;20030;-81
2023/05/08 10:46:59;;;;;;;22.70;20.35;;;19.80;99.90;;;;;;5010193;28;20036;-82
2023/05/08 10:49:29;;;;;;;22.45;19.98;;;19.60;99.90;;;;;;5011042;28;20028;-81
2023/05/08 10:52:22;;;;;;;23.58;20.98;;;19.40;99.90;;;;;;5012315;28;20029;-81
2023/05/08 10:55:03;;;;;;;22.27;19.88;;;19.30;99.90;;;;;;5019141;28;20059;-81
2023/05/08 10:57:29;;;;;;;20.40;18.20;;;19.20;99.90;;;;;;5014314;28;20974;-81
2023/05/08 10:59:54;;;;;;;22.50;20.23;;;19.20;99.90;;;;;;5014619;28;20037;-82
2023/05/08 11:02:28;;;;;;;20.52;18.33;;;19.30;99.90;;;;;;5012573;28;20442;-81
2023/05/08 11:04:55;;;;;;;21.33;19.08;;;19.30;99.90;;;;;;5012989;28;20033;-81
2023/05/08 11:07:29;;;;;;;18.40;16.50;;;19.30;99.90;;;;;;5014046;28;20025;-81
2023/05/08 11:10:06;;;;;;;19.67;17.52;;;19.30;99.90;;;;;;5013434;28;20025;-81
2023/05/08 11:12:32;;;;;;;21.45;19.08;;;19.40;99.90;;;;;;5015491;28;20029;-80
2023/05/08 11:15:05;;;;;;;22.45;19.20;;;19.40;99.90;;;;;;5014781;28;20037;-84
2023/05/08 11:17:31;;;;;;;23.58;20.27;;;19.50;99.90;;;;;;5011188;28;20033;-85
2023/05/08 11:20:02;;;;;;;22.15;19.85;;;19.60;99.90;;;;;;5013903;28;20096;-85
2023/05/08 11:22:31;;;;;;;22.50;20.17;;;19.80;99.90;;;;;;5011266;28;20025;-85
2023/05/08 11:25:05;;;;;;;22.17;19.95;;;20.00;99.90;;;;;;5012995;28;20033;-84
2023/05/08 11:27:37;;;;;;;21.73;19.52;;;20.40;99.90;;;;;;5010092;28;20056;-84
2023/05/08 11:30:22;;;;;;;26.38;23.77;;;20.70;99.90;;;;;;5012675;28;20485;-84
2023/05/08 11:32:58;;;;;;;28.13;25.23;;;20.90;99.90;;;;;;5013222;28;20025;-83
2023/05/08 11:35:53;;;;;;;26.75;23.95;;;21.00;99.90;;;;;;5012740;28;20531;-83
2023/05/08 11:38:20;;;;;;;23.55;21.23;;;21.00;99.90;;;;;;5012837;28;20044;-83
2023/05/08 11:40:55;;;;;;;23.98;21.58;;;21.00;99.90;;;;;;5014049;28;20025;-85
2023/05/08 11:43:32;;;;;;;19.73;17.83;;;21.00;99.90;;;;;;5012509;28;20040;-85
2023/05/08 11:46:03;;;;;;;19.25;17.35;;;21.20;99.90;;;;;;5012290;28;20033;-83
2023/05/08 11:48:29;;;;;;;18.17;16.27;;;21.60;99.90;;;;;;5012208;28;20065;-83
2023/05/08 11:50:55;;;;;;;15.38;13.82;;;22.20;99.90;;;;;;5013927;28;20119;-83
2023/05/08 11:53:21;;;;;;;21.17;19.08;;;23.40;99.90;;;;;;5013239;28;20057;-79
2023/05/08 11:55:48;;;;;;;22.85;20.55;;;24.30;99.90;;;;;;5011960;28;20057;-79
2023/05/08 11:58:15;;;;;;;21.08;18.90;;;24.70;99.90;;;;;;5011890;28;20030;-79
2023/05/08 12:00:43;;;;;;;20.65;18.65;;;25.30;99.90;;;;;;5012881;28;20095;-79
2023/05/08 12:03:12;;;;;;;17.83;16.02;;;25.50;99.90;;;;;;5012678;28;20026;-80
2023/05/08 12:05:37;;;;;;;14.27;12.88;;;25.40;99.90;;;;;;5012824;28;20794;-79
2023/05/08 12:08:05;;;;;;;18.95;17.15;;;25.20;99.90;;;;;;5016320;28;20021;-79
2023/05/08 12:10:31;;;;;;;17.20;15.50;;;25.20;99.90;;;;;;5013408;28;20052;-81
2023/05/08 12:12:56;;;;;;;14.85;13.38;;;25.10;99.90;;;;;;5013239;28;20041;-80
2023/05/08 12:15:22;;;;;;;16.60;14.98;;;25.20;99.90;;;;;;5012306;28;20395;-80
2023/05/08 12:17:47;;;;;;;13.57;12.27;;;25.00;99.90;;;;;;5012064;28;20017;-80
2023/05/08 12:20:17;;;;;;;14.30;12.80;;;24.60;99.90;;;;;;5013511;28;20124;-79
2023/05/08 12:22:51;;;;;;;12.95;11.68;;;24.20;99.90;;;;;;5011852;28;20484;-78
2023/05/08 12:25:17;;;;;;;16.15;14.65;;;23.80;99.90;;;;;;5012784;28;20151;-79
2023/05/08 12:27:44;;;;;;;14.50;13.00;;;23.50;99.90;;;;;;5013479;28;20076;-78
2023/05/08 12:30:12;;;;;;;13.88;12.55;;;23.20;99.90;;;;;;5010940;28;20029;-79
2023/05/08 12:32:40;;;;;;;14.30;12.77;;;23.10;99.90;;;;;;5011144;28;20694;-76
2023/05/08 12:35:10;;;;;;;15.38;13.88;;;22.90;99.90;;;;;;5012193;28;20049;-76
2023/05/08 12:37:36;;;;;;;13.68;12.30;;;22.90;99.90;;;;;;5012265;28;20419;-77